West Bend, WI

6:58 PM CST on February 07, 2016 (GMT -0600)
West Bend Municipal

Weather History for KETB - May, 2013

Change the Weather History Date:

Thursday, May 2, 2013

  Actual Average Record
Temperature  
Mean Temperature 48 °F -  
Max Temperature 59 °F 61 °F 90 °F (1959)
Min Temperature 35 °F 38 °F 23 °F (1981)
Degree Days  
Heating Degree Days 17    
Moisture  
Dew Point 36 °F    
Average Humidity 73    
Maximum Humidity 93    
Minimum Humidity 51    
Precipitation  
Precipitation 1.13 in - - ()
Sea Level Pressure  
Sea Level Pressure 30.23 in    
Wind  
Wind Speed 11 mph (North)    
Max Wind Speed 16 mph    
Max Gust Speed 26 mph    
Visibility 9 miles    
Events Rain    
Averages and records for this station are not official NWS values.
T = Trace of Precipitation, MM = Missing Value Source: NWS Daily Summary

Daily Weather History Graph

Daily Weather History Graph

Search for Another Location

Airport or City:

Trip Planner

Search our weather history database for the weather conditions in past years. The results will help you decide how hot, cold, wet, or windy it might be!

Date:

Astronomy

May. 02, 2013 Rise Set
Actual Time 5:43 AM CDT 7:55 PM CDT
Civil Twilight 5:12 AM CDT 8:27 PM CDT
Nautical Twilight 4:33 AM CDT 9:06 PM CDT
Astronomical Twilight 3:50 AM CDT 9:49 PM CDT
Moon 1:43 AM CDT (5/2) 12:32 PM CDT (5/2)
Length of Visible Light 15h 15m
Length of Day
14h 12m
Waning Gibbous, 47% of the Moon is Illuminated
May 2
Waning Gibbous
May 9
New
May 17
First Quarter
May 24
Full
May 31
Last Quarter

Hourly Weather History & Observations

Time (CDT) Temp. Windchill Dew Point Humidity Pressure Visibility Wind Dir Wind Speed Gust Speed Precip Events Conditions
12:15 AM 46.4 °F 41.1 °F 33.8 °F 62% 30.24 in 10.0 mi NNE 11.5 mph 26.5 mph N/A   Overcast
12:35 AM 44.6 °F 39.2 °F 33.8 °F 66% 30.25 in 10.0 mi NNE 10.4 mph 20.7 mph N/A   Scattered Clouds
12:55 AM 44.6 °F 38.8 °F 33.8 °F 66% 30.24 in 10.0 mi NNE 11.5 mph 23.0 mph N/A   Clear
1:15 AM 44.6 °F 37.4 °F 33.8 °F 66% 30.24 in 10.0 mi NNE 16.1 mph 23.0 mph N/A   Clear
1:35 AM 44.6 °F 38.8 °F 32.0 °F 61% 30.24 in 10.0 mi NNE 11.5 mph 18.4 mph N/A   Clear
1:55 AM 44.6 °F 38.1 °F 32.0 °F 61% 30.23 in 10.0 mi NE 13.8 mph 20.7 mph N/A   Clear
2:15 AM 44.6 °F 38.8 °F 32.0 °F 61% 30.23 in 10.0 mi NE 11.5 mph 16.1 mph N/A   Clear
2:35 AM 42.8 °F 36.6 °F 32.0 °F 66% 30.23 in 10.0 mi NE 11.5 mph 17.3 mph N/A   Clear
2:55 AM 42.8 °F 37.5 °F 32.0 °F 66% 30.23 in 10.0 mi NNE 9.2 mph 17.3 mph N/A   Scattered Clouds
3:15 AM 42.8 °F 38.0 °F 32.0 °F 66% 30.24 in 10.0 mi North 8.1 mph - N/A   Mostly Cloudy
3:35 AM 42.8 °F 35.1 °F 32.0 °F 66% 30.24 in 10.0 mi NNE 16.1 mph 21.9 mph N/A   Overcast
3:55 AM 42.8 °F 35.1 °F 32.0 °F 66% 30.24 in 10.0 mi NNE 16.1 mph 19.6 mph N/A   Scattered Clouds
4:15 AM 41.0 °F 35.2 °F 32.0 °F 70% 30.23 in 10.0 mi NNE 9.2 mph - N/A   Mostly Cloudy
4:35 AM 41.0 °F 33.9 °F 32.0 °F 70% 30.24 in 10.0 mi NNE 12.7 mph 19.6 mph N/A   Mostly Cloudy
4:55 AM 41.0 °F 33.5 °F 32.0 °F 70% 30.24 in 10.0 mi NNE 13.8 mph 18.4 mph N/A   Scattered Clouds
5:15 AM 41.0 °F 33.5 °F 32.0 °F 70% 30.24 in 10.0 mi NNE 13.8 mph 20.7 mph N/A   Clear
5:35 AM 41.0 °F 33.9 °F 32.0 °F 70% 30.25 in 10.0 mi NNE 12.7 mph 17.3 mph N/A   Clear
5:55 AM 39.2 °F 32.0 °F 32.0 °F 75% 30.25 in 10.0 mi NNE 11.5 mph 16.1 mph N/A   Clear
6:15 AM 39.2 °F 34.2 °F 32.0 °F 75% 30.25 in 10.0 mi North 6.9 mph 16.1 mph N/A   Clear
6:35 AM 41.0 °F 33.5 °F 32.0 °F 70% 30.25 in 10.0 mi NNE 13.8 mph 19.6 mph N/A   Clear
6:55 AM 41.0 °F 33.9 °F 32.0 °F 70% 30.25 in 10.0 mi NNE 12.7 mph 19.6 mph N/A   Clear
7:15 AM 41.0 °F 35.2 °F 32.0 °F 70% 30.26 in 10.0 mi NNE 9.2 mph - N/A   Scattered Clouds
7:35 AM 41.0 °F 34.3 °F 32.0 °F 70% 30.26 in 10.0 mi NNE 11.5 mph 18.4 mph N/A   Scattered Clouds
7:55 AM 42.8 °F 35.8 °F 32.0 °F 66% 30.27 in 10.0 mi NNE 13.8 mph - N/A   Clear
8:15 AM 42.8 °F 35.8 °F 32.0 °F 66% 30.26 in 10.0 mi NE 13.8 mph 17.3 mph N/A   Clear
8:35 AM 44.6 °F 38.8 °F 32.0 °F 61% 30.27 in 10.0 mi NNE 11.5 mph 19.6 mph N/A   Clear
8:55 AM 44.6 °F 37.8 °F 33.8 °F 66% 30.26 in 10.0 mi NE 15.0 mph 21.9 mph N/A   Clear
9:15 AM 46.4 °F 40.1 °F 33.8 °F 62% 30.27 in 10.0 mi NNE 15.0 mph 19.6 mph N/A   Clear
9:35 AM 46.4 °F 39.8 °F 33.8 °F 62% 30.25 in 10.0 mi NNE 16.1 mph 21.9 mph N/A   Clear
9:55 AM 48.2 °F - 35.6 °F 62% 30.27 in 10.0 mi NNE 9.2 mph - N/A   Clear
10:15 AM 50.0 °F - 35.6 °F 58% 30.27 in 10.0 mi NNE 12.7 mph - N/A   Clear
10:35 AM 50.0 °F - 35.6 °F 58% 30.27 in 10.0 mi North 11.5 mph 16.1 mph N/A   Clear
10:55 AM 51.8 °F - 35.6 °F 54% 30.26 in 10.0 mi North 12.7 mph - N/A   Clear
11:15 AM 51.8 °F - 37.4 °F 58% 30.26 in 10.0 mi NNE 13.8 mph 17.3 mph N/A   Clear
11:35 AM 53.6 °F - 37.4 °F 54% 30.25 in 10.0 mi NNE 10.4 mph - N/A   Clear
11:55 AM 53.6 °F - 39.2 °F 58% 30.24 in 10.0 mi NNE 12.7 mph 21.9 mph N/A   Mostly Cloudy
12:15 PM 55.4 °F - 39.2 °F 54% 30.23 in 10.0 mi North 9.2 mph 18.4 mph N/A   Mostly Cloudy
12:35 PM 55.4 °F - 39.2 °F 54% 30.22 in 10.0 mi NNE 11.5 mph - N/A   Mostly Cloudy
12:55 PM 59.0 °F - 41.0 °F 51% 30.21 in 10.0 mi NNE 11.5 mph 16.1 mph N/A   Mostly Cloudy
1:15 PM 57.2 °F - 39.2 °F 51% 30.21 in 10.0 mi North 12.7 mph - N/A   Mostly Cloudy
1:35 PM 55.4 °F - 37.4 °F 51% 30.26 in 10.0 mi West 4.6 mph - N/A   Mostly Cloudy
1:55 PM 53.6 °F - 41.0 °F 62% 30.23 in 5.0 mi NW 9.2 mph 17.3 mph 0.04 in Rain Heavy Rain
2:15 PM 50.0 °F - 42.8 °F 76% 30.23 in 5.0 mi NNW 9.2 mph - 0.03 in Rain Rain
2:35 PM 50.0 °F - 42.8 °F 76% 30.21 in 4.0 mi NNE 10.4 mph - 0.11 in Rain Heavy Rain
2:55 PM 46.4 °F 41.1 °F 42.8 °F 87% 30.17 in 7.0 mi North 11.5 mph 19.6 mph 0.21 in Rain Light Rain
3:15 PM 46.4 °F 44.3 °F 42.8 °F 87% 30.23 in 2.5 mi East 4.6 mph 9.2 mph 0.11 in Rain Heavy Rain
3:35 PM 44.6 °F 39.7 °F 42.8 °F 93% 30.19 in 0.8 mi North 9.2 mph - 0.32 in Rain Heavy Rain
3:55 PM 46.4 °F 43.5 °F 42.8 °F 87% 30.20 in 10.0 mi NNW 5.8 mph - 0.33 in   Overcast
4:15 PM 46.4 °F 43.5 °F 42.8 °F 87% 30.23 in 10.0 mi NW 5.8 mph - N/A   Overcast
4:35 PM 46.4 °F 44.3 °F 41.0 °F 81% 30.23 in 10.0 mi NW 4.6 mph - N/A   Overcast
4:55 PM 46.4 °F 42.4 °F 42.8 °F 87% 30.20 in 7.0 mi North 8.1 mph - 0.02 in Rain Heavy Rain
5:15 PM 46.4 °F 41.5 °F 42.8 °F 87% 30.19 in 10.0 mi North 10.4 mph - 0.03 in Rain Light Rain
5:35 PM 44.6 °F 39.7 °F 41.0 °F 87% 30.20 in 10.0 mi NNW 9.2 mph - 0.03 in   Overcast
5:55 PM 44.6 °F 38.4 °F 41.0 °F 87% 30.20 in 10.0 mi NNW 12.7 mph - 0.03 in   Overcast
6:15 PM 44.6 °F 38.8 °F 41.0 °F 87% 30.20 in 10.0 mi North 11.5 mph 18.4 mph N/A   Overcast
6:35 PM 42.8 °F 36.2 °F 37.4 °F 81% 30.20 in 10.0 mi North 12.7 mph 19.6 mph N/A   Overcast
6:55 PM 42.8 °F 38.6 °F 37.4 °F 81% 30.22 in 10.0 mi North 6.9 mph 16.1 mph N/A   Overcast
7:15 PM 42.8 °F 35.8 °F 37.4 °F 81% 30.22 in 10.0 mi NNW 13.8 mph - N/A   Overcast
7:35 PM 41.0 °F 33.1 °F 37.4 °F 87% 30.20 in 10.0 mi North 15.0 mph 18.4 mph N/A Rain Light Rain
7:55 PM 39.2 °F 33.0 °F 35.6 °F 87% 30.25 in 10.0 mi NNW 9.2 mph 18.4 mph N/A Rain Light Rain
8:15 PM 39.2 °F 32.0 °F 35.6 °F 87% 30.24 in 10.0 mi NNW 11.5 mph - N/A   Overcast
8:35 PM 37.4 °F 30.8 °F 35.6 °F 93% 30.24 in 5.0 mi NNW 9.2 mph 17.3 mph 0.08 in Rain Rain
8:55 PM 37.4 °F 28.9 °F 33.8 °F 87% 30.21 in 4.0 mi North 13.8 mph 21.9 mph 0.12 in Rain Rain
9:15 PM 37.4 °F 32.8 °F 33.8 °F 87% 30.25 in 7.0 mi NNE 5.8 mph - 0.01 in Rain Rain
9:35 PM 37.4 °F 30.8 °F 33.8 °F 87% 30.23 in 4.0 mi North 9.2 mph - 0.05 in Rain Light Rain
9:55 PM 37.4 °F 30.3 °F 33.8 °F 87% 30.21 in 3.0 mi North 10.4 mph 17.3 mph 0.14 in   Overcast
10:15 PM 37.4 °F 30.3 °F 33.8 °F 87% 30.22 in 7.0 mi NNE 10.4 mph - 0.02 in Rain Rain
10:35 PM 37.4 °F 32.1 °F 33.8 °F 87% 30.23 in 7.0 mi NNE 6.9 mph - 0.04 in Rain Rain
10:55 PM 37.4 °F 30.8 °F 33.8 °F 87% 30.21 in 5.0 mi North 9.2 mph - 0.08 in Rain Rain
11:15 PM 37.4 °F 34.9 °F 33.8 °F 87% 30.22 in 4.0 mi North 3.5 mph - 0.05 in Rain Rain
11:35 PM 37.4 °F 31.4 °F 33.8 °F 87% 30.22 in 3.0 mi NNE 8.1 mph - 0.12 in Rain Rain
11:55 PM 35.6 °F 30.7 °F 33.8 °F 93% 30.20 in 5.0 mi North 5.8 mph - 0.16 in Rain Rain